createdAt,value
2022-10-25T00:01:48.085Z,7.88
2022-10-25T00:04:16.487Z,7.20
2022-10-25T00:06:44.029Z,7.57
2022-10-25T00:09:11.726Z,6.05
2022-10-25T00:11:38.831Z,8.13
2022-10-25T00:14:07.812Z,8.48
2022-10-25T00:16:38.140Z,7.97
2022-10-25T00:19:06.367Z,5.80
2022-10-25T00:21:33.536Z,6.55
2022-10-25T00:24:00.680Z,6.43
2022-10-25T00:26:27.772Z,6.82
2022-10-25T00:28:56.264Z,6.38
2022-10-25T00:31:24.976Z,6.00
2022-10-25T00:33:52.424Z,6.45
2022-10-25T00:36:22.492Z,5.70
2022-10-25T00:38:50.070Z,6.70
2022-10-25T00:41:20.692Z,5.40
2022-10-25T00:43:50.225Z,7.80
2022-10-25T00:46:26.014Z,3.92
2022-10-25T00:48:58.710Z,5.15
2022-10-25T00:51:50.049Z,7.22
2022-10-25T00:56:57.041Z,5.18
2022-10-25T00:59:26.934Z,7.18
2022-10-25T01:01:56.003Z,4.63
2022-10-25T01:04:28.091Z,4.05
2022-10-25T01:06:55.592Z,6.13
2022-10-25T01:09:26.429Z,5.40
2022-10-25T01:11:53.606Z,4.57
2022-10-25T01:14:21.045Z,6.65
2022-10-25T01:17:10.147Z,3.42
2022-10-25T01:19:55.401Z,4.53
2022-10-25T01:22:46.485Z,5.25
2022-10-25T01:25:19.637Z,5.20
2022-10-25T01:28:27.371Z,6.45
2022-10-25T01:31:09.611Z,4.32
2022-10-25T01:33:43.303Z,3.90
2022-10-25T01:39:13.068Z,5.28
2022-10-25T01:41:46.037Z,3.28
2022-10-25T01:44:43.025Z,4.18
2022-10-25T01:47:21.517Z,7.07
2022-10-25T01:50:08.394Z,5.57
2022-10-25T01:52:35.502Z,4.28
2022-10-25T01:55:03.720Z,6.60
2022-10-25T01:57:45.441Z,5.07
2022-10-25T02:00:15.504Z,5.15
2022-10-25T02:03:13.219Z,3.75
2022-10-25T02:06:14.237Z,5.13
2022-10-25T02:08:47.331Z,4.35
2022-10-25T02:11:29.479Z,4.68
2022-10-25T02:14:03.676Z,2.67
2022-10-25T02:17:20.047Z,8.02
2022-10-25T02:19:58.962Z,3.40
2022-10-25T02:22:30.241Z,4.32
2022-10-25T02:24:58.408Z,5.10
2022-10-25T02:27:26.869Z,2.53
2022-10-25T02:29:54.973Z,6.68
2022-10-25T02:32:22.343Z,6.50
2022-10-25T02:34:49.842Z,4.85
2022-10-25T02:37:17.982Z,5.32
2022-10-25T02:39:46.446Z,6.85
2022-10-25T02:42:13.620Z,4.20
2022-10-25T02:44:40.811Z,6.30
2022-10-25T02:47:08.057Z,5.03
2022-10-25T02:49:35.233Z,4.45
2022-10-25T02:52:02.276Z,4.30
2022-10-25T02:54:29.353Z,6.95
2022-10-25T02:56:56.515Z,6.65
2022-10-25T02:59:23.725Z,5.90
2022-10-25T03:01:50.865Z,5.60
2022-10-25T03:04:18.043Z,5.55
2022-10-25T03:06:45.091Z,5.05
2022-10-25T03:09:12.266Z,6.30
2022-10-25T03:11:39.367Z,5.80
2022-10-25T03:14:06.504Z,6.93
2022-10-25T03:16:33.625Z,7.53
2022-10-25T03:19:00.703Z,7.57
2022-10-25T03:21:27.808Z,4.38
2022-10-25T03:23:55.112Z,4.53
2022-10-25T03:26:22.223Z,2.90
2022-10-25T03:28:49.239Z,7.30
2022-10-25T03:31:18.116Z,3.10
2022-10-25T03:33:45.242Z,4.80
2022-10-25T03:36:12.804Z,4.20
2022-10-25T03:38:39.903Z,7.05
2022-10-25T03:41:06.994Z,6.85
2022-10-25T03:43:34.057Z,7.50
2022-10-25T03:46:01.200Z,7.93
2022-10-25T03:48:28.569Z,8.57
2022-10-25T03:50:55.846Z,4.55
2022-10-25T03:53:23.089Z,4.22
2022-10-25T03:55:50.314Z,7.03
2022-10-25T03:58:18.481Z,7.72
2022-10-25T04:00:45.639Z,4.78
2022-10-25T04:03:12.975Z,4.80
2022-10-25T04:05:39.964Z,6.45
2022-10-25T04:08:07.094Z,8.10
2022-10-25T04:10:34.441Z,7.22
2022-10-25T04:13:01.533Z,5.10
2022-10-25T04:15:28.650Z,5.95
2022-10-25T04:17:55.802Z,4.60
2022-10-25T04:20:23.191Z,5.68
2022-10-25T04:22:55.483Z,5.93
2022-10-25T04:25:23.499Z,5.72
2022-10-25T04:27:50.570Z,7.38
2022-10-25T04:30:17.744Z,4.57
2022-10-25T04:32:45.201Z,5.68
2022-10-25T04:35:13.144Z,5.22
2022-10-25T04:37:40.193Z,6.55
2022-10-25T04:40:07.986Z,6.00
2022-10-25T04:42:35.513Z,4.90
2022-10-25T04:45:02.660Z,5.18
2022-10-25T04:47:33.479Z,6.57
2022-10-25T04:50:00.639Z,5.82
2022-10-25T04:52:30.427Z,7.55
2022-10-25T04:54:58.268Z,3.70
2022-10-25T04:57:26.371Z,5.43
2022-10-25T04:59:53.747Z,3.20
2022-10-25T05:02:21.016Z,6.05
2022-10-25T05:04:48.152Z,5.75
2022-10-25T05:07:18.169Z,4.10
2022-10-25T05:09:47.420Z,4.93
2022-10-25T05:12:15.662Z,7.78
2022-10-25T05:14:42.847Z,4.18
2022-10-25T05:17:10.149Z,4.40
2022-10-25T05:19:37.328Z,3.08
2022-10-25T05:22:04.346Z,3.75
2022-10-25T05:24:31.463Z,5.22
2022-10-25T05:26:58.753Z,5.70
2022-10-25T05:29:25.875Z,9.75
2022-10-25T05:31:52.928Z,5.20
2022-10-25T05:34:20.068Z,6.22
2022-10-25T05:36:47.668Z,3.90
2022-10-25T05:39:14.785Z,8.25
2022-10-25T05:41:41.921Z,9.45
2022-10-25T05:44:09.063Z,10.45
2022-10-25T05:46:36.138Z,7.85
2022-10-25T05:49:04.228Z,8.05
2022-10-25T05:51:35.250Z,9.88
2022-10-25T05:54:09.922Z,7.40
2022-10-25T05:56:37.741Z,7.35
2022-10-25T05:59:09.805Z,9.30
2022-10-25T06:01:42.760Z,5.88
2022-10-25T06:04:11.014Z,7.10
2022-10-25T06:06:39.769Z,8.48
2022-10-25T06:09:08.177Z,8.98
2022-10-25T06:11:35.557Z,7.03
2022-10-25T06:14:03.020Z,7.35
2022-10-25T06:16:45.706Z,6.38
2022-10-25T06:19:13.167Z,6.70
2022-10-25T06:21:40.237Z,11.60
2022-10-25T06:24:07.566Z,9.98
2022-10-25T06:26:34.628Z,5.15
2022-10-25T06:29:04.192Z,5.93
2022-10-25T06:31:32.172Z,4.65
2022-10-25T06:34:01.103Z,5.32
2022-10-25T06:36:28.941Z,4.50
2022-10-25T06:38:55.951Z,7.50
2022-10-25T06:41:25.787Z,7.10
2022-10-25T06:43:52.923Z,5.82
2022-10-25T06:46:33.413Z,7.72
2022-10-25T06:49:01.858Z,5.93
2022-10-25T06:51:29.893Z,4.07
2022-10-25T06:53:59.106Z,6.72
2022-10-25T06:56:27.682Z,7.30
2022-10-25T06:58:55.347Z,8.30
2022-10-25T07:01:24.850Z,7.18
2022-10-25T07:03:54.554Z,7.25
2022-10-25T07:06:27.688Z,3.88
2022-10-25T07:08:57.532Z,5.53
2022-10-25T07:11:25.960Z,6.00
2022-10-25T07:13:53.245Z,7.65
2022-10-25T07:16:21.596Z,6.80
2022-10-25T07:18:49.207Z,6.72
2022-10-25T07:21:21.580Z,6.70
2022-10-25T07:23:50.591Z,3.53
2022-10-25T07:26:29.155Z,4.63
2022-10-25T07:28:58.437Z,5.72
2022-10-25T07:31:31.696Z,4.38
2022-10-25T07:34:00.860Z,9.80
2022-10-25T07:36:28.367Z,6.20
2022-10-25T07:38:57.354Z,4.57
2022-10-25T07:41:25.517Z,5.35
2022-10-25T07:43:52.756Z,5.90
2022-10-25T07:46:19.915Z,5.35
2022-10-25T07:48:46.985Z,6.68
2022-10-25T07:51:16.394Z,9.20
2022-10-25T07:53:43.672Z,6.97
2022-10-25T07:56:18.984Z,7.53
2022-10-25T07:58:49.698Z,7.00
2022-10-25T08:01:27.307Z,7.28
2022-10-25T08:03:55.895Z,7.50
2022-10-25T08:06:24.773Z,7.72
2022-10-25T08:08:52.324Z,5.90
2022-10-25T08:11:19.736Z,5.10
2022-10-25T08:13:49.599Z,6.13
2022-10-25T08:16:17.040Z,4.53
2022-10-25T08:18:44.554Z,6.88
2022-10-25T08:21:11.724Z,6.75
2022-10-25T08:23:38.830Z,8.45
2022-10-25T08:26:06.126Z,7.95
2022-10-25T08:28:33.389Z,5.05
2022-10-25T08:31:01.707Z,7.15
2022-10-25T08:33:29.525Z,8.02
2022-10-25T08:35:59.514Z,6.78
2022-10-25T08:38:26.559Z,7.00
2022-10-25T08:41:07.117Z,9.07
2022-10-25T08:43:55.390Z,7.57
2022-10-25T08:46:27.983Z,5.63
2022-10-25T08:49:14.979Z,9.00
2022-10-25T08:51:45.340Z,3.40
2022-10-25T08:54:33.652Z,10.10
2022-10-25T08:57:28.762Z,8.77
2022-10-25T08:59:58.655Z,3.42
2022-10-25T09:02:36.833Z,13.68
2022-10-25T09:05:04.761Z,6.80
2022-10-25T09:07:47.068Z,6.35
2022-10-25T09:10:46.394Z,14.30
2022-10-25T09:13:41.306Z,13.55
2022-10-25T09:16:11.170Z,22.83
2022-10-25T09:18:58.512Z,18.65
2022-10-25T09:21:39.868Z,28.58
2022-10-25T09:24:17.987Z,34.70
2022-10-25T09:26:50.246Z,13.85
2022-10-25T09:29:39.854Z,20.75
2022-10-25T09:32:22.086Z,11.93
2022-10-25T09:34:49.793Z,7.88
2022-10-25T09:37:50.071Z,10.52
2022-10-25T09:40:23.871Z,8.00
2022-10-25T09:42:56.096Z,18.52
2022-10-25T09:45:42.078Z,10.30
2022-10-25T09:48:17.959Z,6.90
2022-10-25T09:50:51.829Z,13.95
2022-10-25T09:53:21.834Z,7.43
2022-10-25T09:56:04.029Z,9.75
2022-10-25T09:58:33.874Z,6.15
2022-10-25T10:01:28.914Z,6.75
2022-10-25T10:04:05.776Z,10.85
2022-10-25T10:06:37.287Z,9.00
2022-10-25T10:09:07.263Z,5.63
2022-10-25T10:11:36.334Z,6.88
2022-10-25T10:14:11.243Z,5.57
2022-10-25T10:16:58.376Z,5.00
2022-10-25T10:19:27.569Z,5.78
2022-10-25T10:21:58.699Z,6.30
2022-10-25T10:24:28.865Z,11.73
2022-10-25T10:26:59.250Z,11.43
2022-10-25T10:29:31.986Z,9.98
2022-10-25T10:32:01.720Z,5.13
2022-10-25T10:34:35.030Z,10.00
2022-10-25T10:37:04.561Z,11.77
2022-10-25T10:39:32.178Z,11.48
2022-10-25T10:42:05.254Z,11.25
2022-10-25T10:44:36.862Z,9.52
2022-10-25T10:47:21.879Z,5.90
2022-10-25T10:49:48.962Z,10.57
2022-10-25T10:52:28.718Z,10.43
2022-10-25T10:54:56.275Z,5.75
2022-10-25T10:57:30.630Z,12.25
2022-10-25T10:59:58.429Z,36.60
2022-10-25T11:02:33.883Z,41.17
2022-10-25T11:05:01.198Z,17.25
2022-10-25T11:07:36.084Z,25.48
2022-10-25T11:10:33.535Z,36.70
2022-10-25T11:13:12.832Z,18.50
2022-10-25T11:16:07.741Z,28.58
2022-10-25T11:18:50.157Z,20.05
2022-10-25T11:21:19.894Z,32.25
2022-10-25T11:24:23.255Z,30.02
2022-10-25T11:27:24.327Z,20.77
2022-10-25T11:30:09.831Z,13.63
2022-10-25T11:35:41.938Z,13.70
2022-10-25T11:38:11.945Z,14.02
2022-10-25T11:40:53.148Z,25.25
2022-10-25T11:43:29.324Z,37.35
2022-10-25T11:46:05.575Z,19.00
2022-10-25T11:48:38.626Z,24.27
2022-10-25T11:51:33.638Z,26.10
2022-10-25T11:54:21.565Z,65.53
2022-10-25T11:56:57.560Z,51.65
2022-10-25T11:59:45.738Z,26.77
2022-10-25T12:02:18.248Z,19.15
2022-10-25T12:04:57.175Z,43.55
2022-10-25T12:07:37.851Z,31.35
2022-10-25T12:10:42.420Z,25.15
2022-10-25T12:13:21.582Z,29.63
2022-10-25T12:15:51.814Z,31.15
2022-10-25T12:18:35.468Z,32.95
2022-10-25T12:21:04.195Z,20.20
2022-10-25T12:23:39.608Z,31.38
2022-10-25T12:26:13.859Z,23.10
2022-10-25T12:28:46.703Z,16.10
2022-10-25T12:31:36.370Z,19.93
2022-10-25T12:34:26.546Z,46.80
2022-10-25T12:36:57.417Z,30.25
2022-10-25T12:39:31.403Z,37.25
2022-10-25T12:42:03.370Z,18.45
2022-10-25T12:45:08.098Z,19.42
2022-10-25T12:47:48.255Z,9.88
2022-10-25T12:50:39.311Z,9.60
2022-10-25T12:53:21.548Z,11.50
2022-10-25T12:56:03.819Z,10.00
2022-10-25T12:58:42.292Z,6.60
2022-10-25T13:01:21.753Z,8.70
2022-10-25T13:04:04.580Z,10.70
2022-10-25T13:06:38.543Z,15.65
2022-10-25T13:09:11.945Z,18.27
2022-10-25T13:11:43.503Z,24.92
2022-10-25T13:14:24.244Z,25.27
2022-10-25T13:16:51.273Z,27.30
2022-10-25T13:19:35.959Z,20.88
2022-10-25T13:22:37.703Z,18.73
2022-10-25T13:25:08.979Z,11.07
2022-10-25T13:27:37.272Z,9.73
2022-10-25T13:30:07.316Z,10.93
2022-10-25T13:32:42.523Z,12.38
2022-10-25T13:35:21.560Z,18.35
2022-10-25T13:37:50.628Z,11.75
2022-10-25T13:40:24.076Z,11.40
2022-10-25T13:43:17.570Z,13.43
2022-10-25T13:45:54.652Z,9.57
2022-10-25T13:48:34.417Z,10.30
2022-10-25T13:51:10.596Z,15.15
2022-10-25T13:53:42.273Z,8.68
2022-10-25T13:56:24.692Z,11.63
2022-10-25T13:58:53.389Z,16.83
2022-10-25T14:01:21.741Z,26.95
2022-10-25T14:03:53.671Z,14.05
2022-10-25T14:06:44.074Z,13.30
2022-10-25T14:09:26.444Z,13.20
2022-10-25T14:12:14.602Z,16.70
2022-10-25T14:15:02.697Z,15.75
2022-10-25T14:17:40.377Z,8.68
2022-10-25T14:20:21.684Z,13.48
2022-10-25T14:23:00.668Z,5.03
2022-10-25T14:25:53.085Z,11.18
2022-10-25T14:28:26.599Z,8.23
2022-10-25T14:30:55.030Z,8.40
2022-10-25T14:33:39.492Z,9.57
2022-10-25T14:36:12.058Z,6.18
2022-10-25T14:38:57.507Z,6.57
2022-10-25T14:41:30.071Z,7.95
2022-10-25T14:43:57.473Z,7.07
2022-10-25T14:46:27.228Z,9.88
2022-10-25T14:48:58.756Z,11.40
2022-10-25T14:51:33.126Z,12.80
2022-10-25T14:54:15.201Z,20.13
2022-10-25T14:56:45.077Z,22.85
2022-10-25T14:59:32.101Z,13.63
2022-10-25T15:02:15.554Z,13.95
2022-10-25T15:04:47.338Z,8.80
2022-10-25T15:07:35.864Z,9.13
2022-10-25T15:12:34.675Z,8.38
2022-10-25T15:15:47.075Z,7.15
2022-10-25T15:18:38.681Z,7.82
2022-10-25T15:21:07.770Z,6.63
2022-10-25T15:23:35.638Z,4.03
2022-10-25T15:26:24.490Z,8.52
2022-10-25T15:28:57.765Z,12.40
2022-10-25T15:31:28.153Z,7.18
2022-10-25T15:33:57.589Z,7.82
2022-10-25T15:36:27.110Z,7.00
2022-10-25T15:39:09.234Z,9.07
2022-10-25T15:41:37.415Z,9.38
2022-10-25T15:44:04.560Z,11.73
2022-10-25T15:46:33.958Z,7.25
2022-10-25T15:49:04.501Z,4.47
2022-10-25T15:51:38.916Z,5.15
2022-10-25T15:54:05.968Z,8.60
2022-10-25T15:56:33.039Z,8.73
2022-10-25T15:59:01.726Z,6.55
2022-10-25T16:01:29.098Z,16.08
2022-10-25T16:03:56.656Z,8.63
2022-10-25T16:06:25.042Z,10.45
2022-10-25T16:08:52.134Z,11.45
2022-10-25T16:11:21.443Z,13.60
2022-10-25T16:13:51.589Z,9.77
2022-10-25T16:16:40.669Z,14.23
2022-10-25T16:19:18.878Z,7.47
2022-10-25T16:21:46.440Z,6.50
2022-10-25T16:24:14.013Z,7.05
2022-10-25T16:26:44.025Z,9.43
2022-10-25T16:29:24.983Z,8.05
2022-10-25T16:31:53.291Z,8.30
2022-10-25T16:34:20.814Z,9.20
2022-10-25T16:36:49.161Z,10.95
2022-10-25T16:39:17.021Z,7.97
2022-10-25T16:41:45.788Z,8.23
2022-10-25T16:44:14.397Z,15.80
2022-10-25T16:46:41.866Z,7.80
2022-10-25T16:49:11.932Z,7.93
2022-10-25T16:51:40.124Z,10.95
2022-10-25T16:54:08.165Z,9.85
2022-10-25T16:56:35.954Z,8.98
2022-10-25T16:59:03.246Z,16.50
2022-10-25T17:01:34.493Z,12.05
2022-10-25T17:04:03.346Z,13.60
2022-10-25T17:06:45.694Z,9.25
2022-10-25T17:09:12.865Z,9.70
2022-10-25T17:11:40.116Z,9.30
2022-10-25T17:14:07.375Z,10.23
2022-10-25T17:16:34.403Z,13.57
2022-10-25T17:19:03.631Z,12.50
2022-10-25T17:21:31.807Z,5.70
2022-10-25T17:23:59.242Z,9.68
2022-10-25T17:26:26.357Z,10.75
2022-10-25T17:28:53.472Z,20.20
2022-10-25T17:31:20.888Z,9.90
2022-10-25T17:33:48.001Z,10.48
2022-10-25T17:36:17.804Z,10.82
2022-10-25T17:38:44.987Z,6.05
2022-10-25T17:41:12.878Z,8.52
2022-10-25T17:43:41.918Z,4.88
2022-10-25T17:46:14.419Z,8.30
2022-10-25T17:48:41.486Z,7.45
2022-10-25T17:51:11.722Z,5.40
2022-10-25T17:53:38.911Z,7.22
2022-10-25T17:56:17.572Z,7.00
2022-10-25T17:58:46.591Z,10.77
2022-10-25T18:01:19.601Z,14.45
2022-10-25T18:03:47.118Z,9.18
2022-10-25T18:06:16.520Z,12.00
2022-10-25T18:08:43.916Z,16.73
2022-10-25T18:11:19.601Z,8.27
2022-10-25T18:13:46.732Z,7.95
2022-10-25T18:16:13.984Z,10.80
2022-10-25T18:18:41.065Z,9.40
2022-10-25T18:21:10.891Z,9.55
2022-10-25T18:23:38.518Z,11.48
2022-10-25T18:26:07.736Z,6.88
2022-10-25T18:28:36.078Z,7.32
2022-10-25T18:31:10.051Z,8.05
2022-10-25T18:33:38.776Z,7.72
2022-10-25T18:36:08.736Z,7.63
2022-10-25T18:38:36.050Z,7.65
2022-10-25T18:41:17.598Z,7.88
2022-10-25T18:43:44.851Z,6.47
2022-10-25T18:46:12.099Z,6.20
2022-10-25T18:48:39.506Z,8.43
2022-10-25T18:51:11.341Z,6.03
2022-10-25T18:53:41.345Z,5.85
2022-10-25T18:56:10.465Z,8.60
2022-10-25T18:58:38.200Z,13.43
2022-10-25T19:01:13.000Z,8.35
2022-10-25T19:03:40.947Z,11.02
2022-10-25T19:06:08.754Z,16.45
2022-10-25T19:08:37.025Z,10.70
2022-10-25T19:11:12.687Z,10.38
2022-10-25T19:13:40.904Z,9.48
2022-10-25T19:16:08.817Z,6.25
2022-10-25T19:18:36.957Z,13.25
2022-10-25T19:21:12.324Z,8.95
2022-10-25T19:23:41.830Z,13.90
2022-10-25T19:26:12.291Z,9.82
2022-10-25T19:28:39.825Z,8.88
2022-10-25T19:31:16.234Z,11.52
2022-10-25T19:33:47.752Z,8.38
2022-10-25T19:36:15.776Z,6.35
2022-10-25T19:38:45.403Z,7.32
2022-10-25T19:41:16.115Z,9.18
2022-10-25T19:43:43.500Z,8.88
2022-10-25T19:46:12.475Z,7.70
2022-10-25T19:48:40.080Z,7.20
2022-10-25T19:51:10.353Z,6.95
2022-10-25T19:53:37.672Z,11.63
2022-10-25T19:56:12.317Z,11.38
2022-10-25T19:58:40.224Z,10.82
2022-10-25T20:01:13.940Z,10.68
2022-10-25T20:03:42.748Z,6.82
2022-10-25T20:06:18.760Z,5.93
2022-10-25T20:08:49.241Z,8.23
2022-10-25T20:11:17.856Z,7.00
2022-10-25T20:13:45.472Z,9.27
2022-10-25T20:16:14.193Z,12.38
2022-10-25T20:18:42.978Z,5.38
2022-10-25T20:21:16.032Z,8.60
2022-10-25T20:23:49.545Z,11.15
2022-10-25T20:26:23.236Z,7.55
2022-10-25T20:31:20.380Z,11.45
2022-10-25T20:33:47.513Z,6.18
2022-10-25T20:36:14.627Z,7.65
2022-10-25T20:38:42.443Z,6.35
2022-10-25T20:41:13.827Z,7.00
2022-10-25T20:43:41.737Z,12.25
2022-10-25T20:46:09.272Z,9.73
2022-10-25T20:48:36.390Z,7.90
2022-10-25T20:51:06.927Z,7.30
2022-10-25T20:53:36.248Z,11.80
2022-10-25T20:56:03.804Z,7.68
2022-10-25T20:58:30.994Z,11.27
2022-10-25T21:00:58.189Z,8.75
2022-10-25T21:03:27.158Z,7.90
2022-10-25T21:05:55.300Z,8.52
2022-10-25T21:08:23.286Z,8.75
2022-10-25T21:10:58.481Z,9.13
2022-10-25T21:13:26.844Z,7.30
2022-10-25T21:15:54.215Z,9.55
2022-10-25T21:18:21.707Z,11.32
2022-10-25T21:20:49.257Z,6.32
2022-10-25T21:23:16.551Z,7.25
2022-10-25T21:25:43.710Z,6.90
2022-10-25T21:28:11.500Z,8.98
2022-10-25T21:30:38.618Z,8.68
2022-10-25T21:33:05.845Z,7.07
2022-10-25T21:35:32.908Z,8.35
2022-10-25T21:37:59.970Z,5.68
2022-10-25T21:40:27.186Z,5.25
2022-10-25T21:42:57.484Z,8.45
2022-10-25T21:45:24.524Z,5.97
2022-10-25T21:47:51.709Z,5.50
2022-10-25T21:50:18.943Z,7.03
2022-10-25T21:52:46.042Z,13.00
2022-10-25T21:55:13.169Z,16.48
2022-10-25T21:57:40.235Z,9.18
2022-10-25T22:00:08.510Z,13.13
2022-10-25T22:02:35.825Z,16.77
2022-10-25T22:05:02.993Z,15.52
2022-10-25T22:07:30.088Z,8.93
2022-10-25T22:09:57.187Z,15.35
2022-10-25T22:12:24.266Z,16.10
2022-10-25T22:14:51.342Z,9.35
2022-10-25T22:17:18.454Z,12.10
2022-10-25T22:19:45.573Z,12.30
2022-10-25T22:22:12.573Z,9.65
2022-10-25T22:24:39.647Z,10.80
2022-10-25T22:27:06.745Z,16.23
2022-10-25T22:29:33.784Z,12.65
2022-10-25T22:32:00.787Z,11.88
2022-10-25T22:34:28.921Z,10.63
2022-10-25T22:36:55.937Z,13.43
2022-10-25T22:39:23.073Z,10.43
2022-10-25T22:41:53.207Z,9.77
2022-10-25T22:46:53.559Z,6.82
2022-10-25T22:49:22.032Z,7.28
2022-10-25T22:51:49.075Z,6.95
2022-10-25T22:54:16.190Z,11.00
2022-10-25T22:56:43.251Z,4.88
2022-10-25T22:59:12.374Z,7.03
2022-10-25T23:01:39.736Z,8.10
2022-10-25T23:04:08.897Z,9.73
2022-10-25T23:06:39.947Z,8.77
2022-10-25T23:09:09.780Z,6.13
2022-10-25T23:11:38.539Z,7.78
2022-10-25T23:14:05.901Z,9.48
2022-10-25T23:16:32.970Z,10.23
2022-10-25T23:19:00.173Z,7.80
2022-10-25T23:21:30.471Z,6.22
2022-10-25T23:23:59.637Z,5.07
2022-10-25T23:26:30.270Z,10.38
2022-10-25T23:28:57.550Z,8.38
2022-10-25T23:31:25.624Z,9.10
2022-10-25T23:33:54.689Z,6.35
2022-10-25T23:36:24.314Z,6.13
2022-10-25T23:38:52.498Z,8.40
2022-10-25T23:41:20.867Z,7.88
2022-10-25T23:43:48.522Z,9.48
2022-10-25T23:46:15.600Z,9.95
2022-10-25T23:48:42.969Z,11.70
2022-10-25T23:51:12.735Z,10.43
2022-10-25T23:53:40.468Z,8.15
2022-10-25T23:56:09.637Z,5.80
2022-10-25T23:58:36.797Z,6.90
